sensor_id;sensor_type;location;lat;lon;timestamp;P1;P2;P0
69123;PMS5003;56232;53.384;-2.732;2022-11-20T00:01:44;14;14;
69123;PMS5003;56232;53.384;-2.732;2022-11-20T00:04:10;15;15;
69123;PMS5003;56232;53.384;-2.732;2022-11-20T00:06:36;18;14;
69123;PMS5003;56232;53.384;-2.732;2022-11-20T00:09:01;15;14;
69123;PMS5003;56232;53.384;-2.732;2022-11-20T00:11:28;15;14;
69123;PMS5003;56232;53.384;-2.732;2022-11-20T00:13:53;17;12;
69123;PMS5003;56232;53.384;-2.732;2022-11-20T00:16:19;13;12;
69123;PMS5003;56232;53.384;-2.732;2022-11-20T00:18:44;12;11;
69123;PMS5003;56232;53.384;-2.732;2022-11-20T00:21:10;11;11;
69123;PMS5003;56232;53.384;-2.732;2022-11-20T00:23:35;11;8;
69123;PMS5003;56232;53.384;-2.732;2022-11-20T00:26:02;10;9;
69123;PMS5003;56232;53.384;-2.732;2022-11-20T00:28:26;9;9;
69123;PMS5003;56232;53.384;-2.732;2022-11-20T00:30:54;15;15;
69123;PMS5003;56232;53.384;-2.732;2022-11-20T00:33:18;22;17;
69123;PMS5003;56232;53.384;-2.732;2022-11-20T00:35:43;19;18;
69123;PMS5003;56232;53.384;-2.732;2022-11-20T00:38:08;17;16;
69123;PMS5003;56232;53.384;-2.732;2022-11-20T00:40:34;18;17;
69123;PMS5003;56232;53.384;-2.732;2022-11-20T00:43:00;21;21;
69123;PMS5003;56232;53.384;-2.732;2022-11-20T00:45:25;29;27;
69123;PMS5003;56232;53.384;-2.732;2022-11-20T00:47:50;26;25;
69123;PMS5003;56232;53.384;-2.732;2022-11-20T00:50:16;28;27;
69123;PMS5003;56232;53.384;-2.732;2022-11-20T00:52:41;33;32;
69123;PMS5003;56232;53.384;-2.732;2022-11-20T00:55:07;34;33;
69123;PMS5003;56232;53.384;-2.732;2022-11-20T00:57:32;25;25;
69123;PMS5003;56232;53.384;-2.732;2022-11-20T00:59:58;29;29;
69123;PMS5003;56232;53.384;-2.732;2022-11-20T01:02:23;20;19;
69123;PMS5003;56232;53.384;-2.732;2022-11-20T01:04:48;24;21;
69123;PMS5003;56232;53.384;-2.732;2022-11-20T01:07:14;20;20;
69123;PMS5003;56232;53.384;-2.732;2022-11-20T01:09:39;17;15;
69123;PMS5003;56232;53.384;-2.732;2022-11-20T01:12:05;14;13;
69123;PMS5003;56232;53.384;-2.732;2022-11-20T01:14:30;19;12;
69123;PMS5003;56232;53.384;-2.732;2022-11-20T01:16:56;11;11;
69123;PMS5003;56232;53.384;-2.732;2022-11-20T01:19:22;11;11;
69123;PMS5003;56232;53.384;-2.732;2022-11-20T01:21:49;11;11;
69123;PMS5003;56232;53.384;-2.732;2022-11-20T01:24:14;10;10;
69123;PMS5003;56232;53.384;-2.732;2022-11-20T01:26:39;11;10;
69123;PMS5003;56232;53.384;-2.732;2022-11-20T01:29:04;10;10;
69123;PMS5003;56232;53.384;-2.732;2022-11-20T01:31:31;12;11;
69123;PMS5003;56232;53.384;-2.732;2022-11-20T01:33:56;10;10;
69123;PMS5003;56232;53.384;-2.732;2022-11-20T01:36:21;12;10;
69123;PMS5003;56232;53.384;-2.732;2022-11-20T01:38:47;11;9;
69123;PMS5003;56232;53.384;-2.732;2022-11-20T01:41:13;9;9;
69123;PMS5003;56232;53.384;-2.732;2022-11-20T01:43:38;8;7;
69123;PMS5003;56232;53.384;-2.732;2022-11-20T01:46:05;9;9;
69123;PMS5003;56232;53.384;-2.732;2022-11-20T01:48:31;9;8;
69123;PMS5003;56232;53.384;-2.732;2022-11-20T01:50:55;7;7;
69123;PMS5003;56232;53.384;-2.732;2022-11-20T01:53:21;10;9;
69123;PMS5003;56232;53.384;-2.732;2022-11-20T01:55:48;11;10;
69123;PMS5003;56232;53.384;-2.732;2022-11-20T01:58:12;9;9;
69123;PMS5003;56232;53.384;-2.732;2022-11-20T02:00:38;8;8;
69123;PMS5003;56232;53.384;-2.732;2022-11-20T02:03:05;9;9;
69123;PMS5003;56232;53.384;-2.732;2022-11-20T02:05:32;10;9;
69123;PMS5003;56232;53.384;-2.732;2022-11-20T02:07:56;14;14;
69123;PMS5003;56232;53.384;-2.732;2022-11-20T02:10:21;15;15;
69123;PMS5003;56232;53.384;-2.732;2022-11-20T02:12:47;17;14;
69123;PMS5003;56232;53.384;-2.732;2022-11-20T02:15:12;21;21;
69123;PMS5003;56232;53.384;-2.732;2022-11-20T02:17:38;14;14;
69123;PMS5003;56232;53.384;-2.732;2022-11-20T02:20:04;23;22;
69123;PMS5003;56232;53.384;-2.732;2022-11-20T02:22:31;21;21;
69123;PMS5003;56232;53.384;-2.732;2022-11-20T02:24:55;15;15;
69123;PMS5003;56232;53.384;-2.732;2022-11-20T02:27:20;19;17;
69123;PMS5003;56232;53.384;-2.732;2022-11-20T02:29:47;22;21;
69123;PMS5003;56232;53.384;-2.732;2022-11-20T02:34:37;22;22;
69123;PMS5003;56232;53.384;-2.732;2022-11-20T02:37:03;28;27;
69123;PMS5003;56232;53.384;-2.732;2022-11-20T02:39:28;27;24;
69123;PMS5003;56232;53.384;-2.732;2022-11-20T02:41:54;31;29;
69123;PMS5003;56232;53.384;-2.732;2022-11-20T02:44:19;21;21;
69123;PMS5003;56232;53.384;-2.732;2022-11-20T02:46:44;23;23;
69123;PMS5003;56232;53.384;-2.732;2022-11-20T02:49:09;19;19;
69123;PMS5003;56232;53.384;-2.732;2022-11-20T02:51:35;17;15;
69123;PMS5003;56232;53.384;-2.732;2022-11-20T02:54:01;10;10;
69123;PMS5003;56232;53.384;-2.732;2022-11-20T02:56:26;13;13;
69123;PMS5003;56232;53.384;-2.732;2022-11-20T02:58:52;21;21;
69123;PMS5003;56232;53.384;-2.732;2022-11-20T03:01:18;25;25;
69123;PMS5003;56232;53.384;-2.732;2022-11-20T03:03:43;25;25;
69123;PMS5003;56232;53.384;-2.732;2022-11-20T03:06:08;28;28;
69123;PMS5003;56232;53.384;-2.732;2022-11-20T03:08:34;21;20;
69123;PMS5003;56232;53.384;-2.732;2022-11-20T03:11:03;18;18;
69123;PMS5003;56232;53.384;-2.732;2022-11-20T03:13:25;15;14;
69123;PMS5003;56232;53.384;-2.732;2022-11-20T03:15:51;18;15;
69123;PMS5003;56232;53.384;-2.732;2022-11-20T03:18:17;20;17;
69123;PMS5003;56232;53.384;-2.732;2022-11-20T03:20:41;13;13;
69123;PMS5003;56232;53.384;-2.732;2022-11-20T03:23:07;12;12;
69123;PMS5003;56232;53.384;-2.732;2022-11-20T03:25:33;14;14;
69123;PMS5003;56232;53.384;-2.732;2022-11-20T03:27:59;15;15;
69123;PMS5003;56232;53.384;-2.732;2022-11-20T03:30:24;13;12;
69123;PMS5003;56232;53.384;-2.732;2022-11-20T03:32:52;12;11;
69123;PMS5003;56232;53.384;-2.732;2022-11-20T03:35:16;14;13;
69123;PMS5003;56232;53.384;-2.732;2022-11-20T03:37:41;13;13;
69123;PMS5003;56232;53.384;-2.732;2022-11-20T03:40:08;12;11;
69123;PMS5003;56232;53.384;-2.732;2022-11-20T03:42:32;14;14;
69123;PMS5003;56232;53.384;-2.732;2022-11-20T03:44:58;15;14;
69123;PMS5003;56232;53.384;-2.732;2022-11-20T03:47:24;15;15;
69123;PMS5003;56232;53.384;-2.732;2022-11-20T03:49:49;15;13;
69123;PMS5003;56232;53.384;-2.732;2022-11-20T03:52:15;13;13;
69123;PMS5003;56232;53.384;-2.732;2022-11-20T03:54:40;14;13;
69123;PMS5003;56232;53.384;-2.732;2022-11-20T03:57:06;16;13;
69123;PMS5003;56232;53.384;-2.732;2022-11-20T03:59:31;13;12;
69123;PMS5003;56232;53.384;-2.732;2022-11-20T04:01:57;13;13;
69123;PMS5003;56232;53.384;-2.732;2022-11-20T04:04:23;15;15;
69123;PMS5003;56232;53.384;-2.732;2022-11-20T04:06:48;15;14;
69123;PMS5003;56232;53.384;-2.732;2022-11-20T04:09:14;14;14;
69123;PMS5003;56232;53.384;-2.732;2022-11-20T04:11:39;16;14;
69123;PMS5003;56232;53.384;-2.732;2022-11-20T04:14:05;19;16;
69123;PMS5003;56232;53.384;-2.732;2022-11-20T04:16:32;14;14;
69123;PMS5003;56232;53.384;-2.732;2022-11-20T04:18:57;14;13;
69123;PMS5003;56232;53.384;-2.732;2022-11-20T04:21:21;16;16;
69123;PMS5003;56232;53.384;-2.732;2022-11-20T04:23:47;22;20;
69123;PMS5003;56232;53.384;-2.732;2022-11-20T04:26:13;28;22;
69123;PMS5003;56232;53.384;-2.732;2022-11-20T04:28:39;22;21;
69123;PMS5003;56232;53.384;-2.732;2022-11-20T04:31:05;19;18;
69123;PMS5003;56232;53.384;-2.732;2022-11-20T04:33:30;19;19;
69123;PMS5003;56232;53.384;-2.732;2022-11-20T04:35:59;21;20;
69123;PMS5003;56232;53.384;-2.732;2022-11-20T04:38:21;20;18;
69123;PMS5003;56232;53.384;-2.732;2022-11-20T04:40:47;16;16;
69123;PMS5003;56232;53.384;-2.732;2022-11-20T04:43:12;16;16;
69123;PMS5003;56232;53.384;-2.732;2022-11-20T04:45:38;16;16;
69123;PMS5003;56232;53.384;-2.732;2022-11-20T04:48:04;14;14;
69123;PMS5003;56232;53.384;-2.732;2022-11-20T04:50:30;16;15;
69123;PMS5003;56232;53.384;-2.732;2022-11-20T04:52:56;17;15;
69123;PMS5003;56232;53.384;-2.732;2022-11-20T04:55:22;17;16;
69123;PMS5003;56232;53.384;-2.732;2022-11-20T04:57:49;16;16;
69123;PMS5003;56232;53.384;-2.732;2022-11-20T05:00:14;17;16;
69123;PMS5003;56232;53.384;-2.732;2022-11-20T05:02:38;13;13;
69123;PMS5003;56232;53.384;-2.732;2022-11-20T05:05:04;15;14;
69123;PMS5003;56232;53.384;-2.732;2022-11-20T05:07:30;16;16;
69123;PMS5003;56232;53.384;-2.732;2022-11-20T05:09:55;15;15;
69123;PMS5003;56232;53.384;-2.732;2022-11-20T05:12:21;14;13;
69123;PMS5003;56232;53.384;-2.732;2022-11-20T05:14:47;16;16;
69123;PMS5003;56232;53.384;-2.732;2022-11-20T05:17:13;16;15;
69123;PMS5003;56232;53.384;-2.732;2022-11-20T05:19:38;18;16;
69123;PMS5003;56232;53.384;-2.732;2022-11-20T05:22:04;16;15;
69123;PMS5003;56232;53.384;-2.732;2022-11-20T05:24:30;16;16;
69123;PMS5003;56232;53.384;-2.732;2022-11-20T05:26:54;14;14;
69123;PMS5003;56232;53.384;-2.732;2022-11-20T05:29:20;17;17;
69123;PMS5003;56232;53.384;-2.732;2022-11-20T05:31:46;16;15;
69123;PMS5003;56232;53.384;-2.732;2022-11-20T05:34:11;15;14;
69123;PMS5003;56232;53.384;-2.732;2022-11-20T05:36:37;13;13;
69123;PMS5003;56232;53.384;-2.732;2022-11-20T05:39:03;16;15;
69123;PMS5003;56232;53.384;-2.732;2022-11-20T05:41:28;15;15;
69123;PMS5003;56232;53.384;-2.732;2022-11-20T05:43:55;15;14;
69123;PMS5003;56232;53.384;-2.732;2022-11-20T05:46:20;12;12;
69123;PMS5003;56232;53.384;-2.732;2022-11-20T05:48:46;14;13;
69123;PMS5003;56232;53.384;-2.732;2022-11-20T05:51:12;13;12;
69123;PMS5003;56232;53.384;-2.732;2022-11-20T05:53:37;14;14;
69123;PMS5003;56232;53.384;-2.732;2022-11-20T05:56:04;15;14;
69123;PMS5003;56232;53.384;-2.732;2022-11-20T05:58:28;15;14;
69123;PMS5003;56232;53.384;-2.732;2022-11-20T06:00:54;13;12;
69123;PMS5003;56232;53.384;-2.732;2022-11-20T06:03:20;13;12;
69123;PMS5003;56232;53.384;-2.732;2022-11-20T06:05:45;13;11;
69123;PMS5003;56232;53.384;-2.732;2022-11-20T06:08:11;9;9;
69123;PMS5003;56232;53.384;-2.732;2022-11-20T06:10:37;10;10;
69123;PMS5003;56232;53.384;-2.732;2022-11-20T06:13:02;10;10;
69123;PMS5003;56232;53.384;-2.732;2022-11-20T06:15:28;9;9;
69123;PMS5003;56232;53.384;-2.732;2022-11-20T06:17:54;9;8;
69123;PMS5003;56232;53.384;-2.732;2022-11-20T06:20:20;7;6;
69123;PMS5003;56232;53.384;-2.732;2022-11-20T06:22:44;11;8;
69123;PMS5003;56232;53.384;-2.732;2022-11-20T06:25:10;7;7;
69123;PMS5003;56232;53.384;-2.732;2022-11-20T06:27:36;8;6;
69123;PMS5003;56232;53.384;-2.732;2022-11-20T06:30:02;8;7;
69123;PMS5003;56232;53.384;-2.732;2022-11-20T06:32:27;5;4;
69123;PMS5003;56232;53.384;-2.732;2022-11-20T06:34:53;7;6;
69123;PMS5003;56232;53.384;-2.732;2022-11-20T06:37:19;6;6;
69123;PMS5003;56232;53.384;-2.732;2022-11-20T06:39:44;7;7;
69123;PMS5003;56232;53.384;-2.732;2022-11-20T06:42:10;9;7;
69123;PMS5003;56232;53.384;-2.732;2022-11-20T06:44:35;7;5;
69123;PMS5003;56232;53.384;-2.732;2022-11-20T06:47:01;8;4;
69123;PMS5003;56232;53.384;-2.732;2022-11-20T06:49:27;5;4;
69123;PMS5003;56232;53.384;-2.732;2022-11-20T06:51:52;7;5;
69123;PMS5003;56232;53.384;-2.732;2022-11-20T06:54:18;5;5;
69123;PMS5003;56232;53.384;-2.732;2022-11-20T06:56:46;5;4;
69123;PMS5003;56232;53.384;-2.732;2022-11-20T06:59:09;9;7;
69123;PMS5003;56232;53.384;-2.732;2022-11-20T07:01:35;6;4;
69123;PMS5003;56232;53.384;-2.732;2022-11-20T07:04:00;6;4;
69123;PMS5003;56232;53.384;-2.732;2022-11-20T07:06:26;5;4;
69123;PMS5003;56232;53.384;-2.732;2022-11-20T07:08:51;5;3;
69123;PMS5003;56232;53.384;-2.732;2022-11-20T07:11:17;5;3;
69123;PMS5003;56232;53.384;-2.732;2022-11-20T07:13:42;7;5;
69123;PMS5003;56232;53.384;-2.732;2022-11-20T07:16:08;6;5;
69123;PMS5003;56232;53.384;-2.732;2022-11-20T07:18:33;5;4;
69123;PMS5003;56232;53.384;-2.732;2022-11-20T07:21:00;9;6;
69123;PMS5003;56232;53.384;-2.732;2022-11-20T07:23:24;4;4;
69123;PMS5003;56232;53.384;-2.732;2022-11-20T07:25:50;4;4;
69123;PMS5003;56232;53.384;-2.732;2022-11-20T07:28:15;7;4;
69123;PMS5003;56232;53.384;-2.732;2022-11-20T07:30:41;9;7;
69123;PMS5003;56232;53.384;-2.732;2022-11-20T07:33:06;7;4;
69123;PMS5003;56232;53.384;-2.732;2022-11-20T07:35:32;6;5;
69123;PMS5003;56232;53.384;-2.732;2022-11-20T07:37:57;6;5;
69123;PMS5003;56232;53.384;-2.732;2022-11-20T07:40:23;5;4;
69123;PMS5003;56232;53.384;-2.732;2022-11-20T07:42:49;8;6;
69123;PMS5003;56232;53.384;-2.732;2022-11-20T07:45:14;6;4;
69123;PMS5003;56232;53.384;-2.732;2022-11-20T07:47:40;8;5;
69123;PMS5003;56232;53.384;-2.732;2022-11-20T07:50:05;4;3;
69123;PMS5003;56232;53.384;-2.732;2022-11-20T07:52:31;7;5;
69123;PMS5003;56232;53.384;-2.732;2022-11-20T07:54:56;7;4;
69123;PMS5003;56232;53.384;-2.732;2022-11-20T07:57:22;6;5;
69123;PMS5003;56232;53.384;-2.732;2022-11-20T07:59:48;4;3;
69123;PMS5003;56232;53.384;-2.732;2022-11-20T08:02:14;5;4;
69123;PMS5003;56232;53.384;-2.732;2022-11-20T08:04:39;5;4;
69123;PMS5003;56232;53.384;-2.732;2022-11-20T08:07:05;9;4;
69123;PMS5003;56232;53.384;-2.732;2022-11-20T08:09:30;6;4;
69123;PMS5003;56232;53.384;-2.732;2022-11-20T08:11:56;5;2;
69123;PMS5003;56232;53.384;-2.732;2022-11-20T08:14:22;4;3;
69123;PMS5003;56232;53.384;-2.732;2022-11-20T08:16:48;5;4;
69123;PMS5003;56232;53.384;-2.732;2022-11-20T08:19:13;8;4;
69123;PMS5003;56232;53.384;-2.732;2022-11-20T08:21:39;5;4;
69123;PMS5003;56232;53.384;-2.732;2022-11-20T08:24:05;5;5;
69123;PMS5003;56232;53.384;-2.732;2022-11-20T08:26:30;4;3;
69123;PMS5003;56232;53.384;-2.732;2022-11-20T08:28:56;3;1;
69123;PMS5003;56232;53.384;-2.732;2022-11-20T08:31:21;3;3;
69123;PMS5003;56232;53.384;-2.732;2022-11-20T08:33:47;6;5;
69123;PMS5003;56232;53.384;-2.732;2022-11-20T08:36:13;3;3;
69123;PMS5003;56232;53.384;-2.732;2022-11-20T08:38:38;7;6;
69123;PMS5003;56232;53.384;-2.732;2022-11-20T08:41:04;6;5;
69123;PMS5003;56232;53.384;-2.732;2022-11-20T08:43:30;4;4;
69123;PMS5003;56232;53.384;-2.732;2022-11-20T08:45:55;6;4;
69123;PMS5003;56232;53.384;-2.732;2022-11-20T08:48:21;5;5;
69123;PMS5003;56232;53.384;-2.732;2022-11-20T08:50:46;3;3;
69123;PMS5003;56232;53.384;-2.732;2022-11-20T08:53:12;5;3;
69123;PMS5003;56232;53.384;-2.732;2022-11-20T08:55:37;5;3;
69123;PMS5003;56232;53.384;-2.732;2022-11-20T08:58:03;7;5;
69123;PMS5003;56232;53.384;-2.732;2022-11-20T09:00:29;4;3;
69123;PMS5003;56232;53.384;-2.732;2022-11-20T09:02:54;8;5;
69123;PMS5003;56232;53.384;-2.732;2022-11-20T09:05:20;3;2;
69123;PMS5003;56232;53.384;-2.732;2022-11-20T09:07:45;7;5;
69123;PMS5003;56232;53.384;-2.732;2022-11-20T09:10:10;8;5;
69123;PMS5003;56232;53.384;-2.732;2022-11-20T09:12:36;7;5;
69123;PMS5003;56232;53.384;-2.732;2022-11-20T09:15:01;6;4;
69123;PMS5003;56232;53.384;-2.732;2022-11-20T09:17:27;6;5;
69123;PMS5003;56232;53.384;-2.732;2022-11-20T09:19:53;4;3;
69123;PMS5003;56232;53.384;-2.732;2022-11-20T09:22:18;6;5;
69123;PMS5003;56232;53.384;-2.732;2022-11-20T09:24:44;6;5;
69123;PMS5003;56232;53.384;-2.732;2022-11-20T09:27:09;5;5;
69123;PMS5003;56232;53.384;-2.732;2022-11-20T09:29:35;5;5;
69123;PMS5003;56232;53.384;-2.732;2022-11-20T09:32:00;11;5;
69123;PMS5003;56232;53.384;-2.732;2022-11-20T09:34:26;4;3;
69123;PMS5003;56232;53.384;-2.732;2022-11-20T09:36:51;4;4;
69123;PMS5003;56232;53.384;-2.732;2022-11-20T09:39:17;6;4;
69123;PMS5003;56232;53.384;-2.732;2022-11-20T09:41:51;3;3;
69123;PMS5003;56232;53.384;-2.732;2022-11-20T09:44:11;4;3;
69123;PMS5003;56232;53.384;-2.732;2022-11-20T09:46:35;7;5;
69123;PMS5003;56232;53.384;-2.732;2022-11-20T09:49:03;9;7;
69123;PMS5003;56232;53.384;-2.732;2022-11-20T09:51:30;5;4;
69123;PMS5003;56232;53.384;-2.732;2022-11-20T09:53:54;9;4;
69123;PMS5003;56232;53.384;-2.732;2022-11-20T09:56:16;3;3;
69123;PMS5003;56232;53.384;-2.732;2022-11-20T09:58:42;3;2;
69123;PMS5003;56232;53.384;-2.732;2022-11-20T10:01:09;7;4;
69123;PMS5003;56232;53.384;-2.732;2022-11-20T10:03:36;4;3;
69123;PMS5003;56232;53.384;-2.732;2022-11-20T10:05:58;4;2;
69123;PMS5003;56232;53.384;-2.732;2022-11-20T10:08:25;6;5;
69123;PMS5003;56232;53.384;-2.732;2022-11-20T10:10:50;5;4;
69123;PMS5003;56232;53.384;-2.732;2022-11-20T10:13:19;7;6;
69123;PMS5003;56232;53.384;-2.732;2022-11-20T10:15:42;4;3;
69123;PMS5003;56232;53.384;-2.732;2022-11-20T10:18:09;4;3;
69123;PMS5003;56232;53.384;-2.732;2022-11-20T10:20:34;5;3;
69123;PMS5003;56232;53.384;-2.732;2022-11-20T10:23:02;6;4;
69123;PMS5003;56232;53.384;-2.732;2022-11-20T10:25:23;3;2;
69123;PMS5003;56232;53.384;-2.732;2022-11-20T10:30:14;3;2;
69123;PMS5003;56232;53.384;-2.732;2022-11-20T10:32:39;14;4;
69123;PMS5003;56232;53.384;-2.732;2022-11-20T10:35:05;4;3;
69123;PMS5003;56232;53.384;-2.732;2022-11-20T10:37:30;7;5;
69123;PMS5003;56232;53.384;-2.732;2022-11-20T10:39:56;2;2;
69123;PMS5003;56232;53.384;-2.732;2022-11-20T10:42:22;6;3;
69123;PMS5003;56232;53.384;-2.732;2022-11-20T10:44:49;4;3;
69123;PMS5003;56232;53.384;-2.732;2022-11-20T10:47:13;4;3;
69123;PMS5003;56232;53.384;-2.732;2022-11-20T10:49:37;9;7;
69123;PMS5003;56232;53.384;-2.732;2022-11-20T10:52:05;5;4;
69123;PMS5003;56232;53.384;-2.732;2022-11-20T10:54:31;4;3;
69123;PMS5003;56232;53.384;-2.732;2022-11-20T10:56:56;5;5;
69123;PMS5003;56232;53.384;-2.732;2022-11-20T10:59:27;5;5;
69123;PMS5003;56232;53.384;-2.732;2022-11-20T11:01:45;7;5;
69123;PMS5003;56232;53.384;-2.732;2022-11-20T11:04:15;3;3;
69123;PMS5003;56232;53.384;-2.732;2022-11-20T11:06:37;4;3;
69123;PMS5003;56232;53.384;-2.732;2022-11-20T11:09:03;8;5;
69123;PMS5003;56232;53.384;-2.732;2022-11-20T11:11:28;4;3;
69123;PMS5003;56232;53.384;-2.732;2022-11-20T11:13:53;6;4;
69123;PMS5003;56232;53.384;-2.732;2022-11-20T11:16:21;12;6;
69123;PMS5003;56232;53.384;-2.732;2022-11-20T11:18:43;5;3;
69123;PMS5003;56232;53.384;-2.732;2022-11-20T11:21:09;5;4;
69123;PMS5003;56232;53.384;-2.732;2022-11-20T11:23:35;6;4;
69123;PMS5003;56232;53.384;-2.732;2022-11-20T11:26:00;7;4;
69123;PMS5003;56232;53.384;-2.732;2022-11-20T11:28:26;6;5;
69123;PMS5003;56232;53.384;-2.732;2022-11-20T11:30:51;4;4;
69123;PMS5003;56232;53.384;-2.732;2022-11-20T11:33:19;7;3;
69123;PMS5003;56232;53.384;-2.732;2022-11-20T11:35:44;6;4;
69123;PMS5003;56232;53.384;-2.732;2022-11-20T11:38:12;5;2;
69123;PMS5003;56232;53.384;-2.732;2022-11-20T11:40:34;4;3;
69123;PMS5003;56232;53.384;-2.732;2022-11-20T11:43:00;3;3;
69123;PMS5003;56232;53.384;-2.732;2022-11-20T11:45:25;4;3;
69123;PMS5003;56232;53.384;-2.732;2022-11-20T11:47:51;4;3;
69123;PMS5003;56232;53.384;-2.732;2022-11-20T11:50:17;6;3;
69123;PMS5003;56232;53.384;-2.732;2022-11-20T11:52:42;5;5;
69123;PMS5003;56232;53.384;-2.732;2022-11-20T11:55:07;7;4;
69123;PMS5003;56232;53.384;-2.732;2022-11-20T11:57:36;3;2;
69123;PMS5003;56232;53.384;-2.732;2022-11-20T12:00:01;5;3;
69123;PMS5003;56232;53.384;-2.732;2022-11-20T12:02:27;3;3;
69123;PMS5003;56232;53.384;-2.732;2022-11-20T12:04:50;6;2;
69123;PMS5003;56232;53.384;-2.732;2022-11-20T12:07:15;4;4;
69123;PMS5003;56232;53.384;-2.732;2022-11-20T12:09:42;5;3;
69123;PMS5003;56232;53.384;-2.732;2022-11-20T12:12:08;3;2;
69123;PMS5003;56232;53.384;-2.732;2022-11-20T12:14:33;3;3;
69123;PMS5003;56232;53.384;-2.732;2022-11-20T12:16:57;5;2;
69123;PMS5003;56232;53.384;-2.732;2022-11-20T12:19:23;3;2;
69123;PMS5003;56232;53.384;-2.732;2022-11-20T12:21:52;5;5;
69123;PMS5003;56232;53.384;-2.732;2022-11-20T12:26:43;4;3;
69123;PMS5003;56232;53.384;-2.732;2022-11-20T12:29:06;4;4;
69123;PMS5003;56232;53.384;-2.732;2022-11-20T12:36:26;3;2;
69123;PMS5003;56232;53.384;-2.732;2022-11-20T12:38:51;3;2;
69123;PMS5003;56232;53.384;-2.732;2022-11-20T12:41:15;3;2;
69123;PMS5003;56232;53.384;-2.732;2022-11-20T12:43:41;4;3;
69123;PMS5003;56232;53.384;-2.732;2022-11-20T12:46:08;6;3;
69123;PMS5003;56232;53.384;-2.732;2022-11-20T12:48:36;4;3;
69123;PMS5003;56232;53.384;-2.732;2022-11-20T12:51:00;7;5;
69123;PMS5003;56232;53.384;-2.732;2022-11-20T12:53:24;4;3;
69123;PMS5003;56232;53.384;-2.732;2022-11-20T12:55:48;7;6;
69123;PMS5003;56232;53.384;-2.732;2022-11-20T12:58:17;7;6;
69123;PMS5003;56232;53.384;-2.732;2022-11-20T13:00:40;10;9;
69123;PMS5003;56232;53.384;-2.732;2022-11-20T13:05:31;9;8;
69123;PMS5003;56232;53.384;-2.732;2022-11-20T13:07:55;8;8;
69123;PMS5003;56232;53.384;-2.732;2022-11-20T13:10:23;14;9;
69123;PMS5003;56232;53.384;-2.732;2022-11-20T13:12:47;11;9;
69123;PMS5003;56232;53.384;-2.732;2022-11-20T13:15:17;9;7;
69123;PMS5003;56232;53.384;-2.732;2022-11-20T13:17:38;9;8;
69123;PMS5003;56232;53.384;-2.732;2022-11-20T13:20:04;6;6;
69123;PMS5003;56232;53.384;-2.732;2022-11-20T13:22:29;9;9;
69123;PMS5003;56232;53.384;-2.732;2022-11-20T13:24:54;10;6;
69123;PMS5003;56232;53.384;-2.732;2022-11-20T13:27:20;9;9;
69123;PMS5003;56232;53.384;-2.732;2022-11-20T13:29:45;8;7;
69123;PMS5003;56232;53.384;-2.732;2022-11-20T13:32:13;12;7;
69123;PMS5003;56232;53.384;-2.732;2022-11-20T13:34:36;6;5;
69123;PMS5003;56232;53.384;-2.732;2022-11-20T13:37:01;7;5;
69123;PMS5003;56232;53.384;-2.732;2022-11-20T13:39:28;7;5;
69123;PMS5003;56232;53.384;-2.732;2022-11-20T13:41:54;5;4;
69123;PMS5003;56232;53.384;-2.732;2022-11-20T13:44:23;6;6;
69123;PMS5003;56232;53.384;-2.732;2022-11-20T13:46:44;7;5;
69123;PMS5003;56232;53.384;-2.732;2022-11-20T13:49:10;4;4;
69123;PMS5003;56232;53.384;-2.732;2022-11-20T13:51:37;5;4;
69123;PMS5003;56232;53.384;-2.732;2022-11-20T13:56:29;4;3;
69123;PMS5003;56232;53.384;-2.732;2022-11-20T13:58:54;4;3;
69123;PMS5003;56232;53.384;-2.732;2022-11-20T14:01:19;5;4;
69123;PMS5003;56232;53.384;-2.732;2022-11-20T14:03:43;6;4;
69123;PMS5003;56232;53.384;-2.732;2022-11-20T14:06:11;6;3;
69123;PMS5003;56232;53.384;-2.732;2022-11-20T14:08:35;2;1;
69123;PMS5003;56232;53.384;-2.732;2022-11-20T14:11:04;3;2;
69123;PMS5003;56232;53.384;-2.732;2022-11-20T14:13:25;3;2;
69123;PMS5003;56232;53.384;-2.732;2022-11-20T14:15:56;1;1;
69123;PMS5003;56232;53.384;-2.732;2022-11-20T14:18:19;4;3;
69123;PMS5003;56232;53.384;-2.732;2022-11-20T14:20:42;3;3;
69123;PMS5003;56232;53.384;-2.732;2022-11-20T14:23:09;3;3;
69123;PMS5003;56232;53.384;-2.732;2022-11-20T14:25:34;2;1;
69123;PMS5003;56232;53.384;-2.732;2022-11-20T14:28:00;7;6;
69123;PMS5003;56232;53.384;-2.732;2022-11-20T14:30:26;4;3;
69123;PMS5003;56232;53.384;-2.732;2022-11-20T14:32:51;3;2;
69123;PMS5003;56232;53.384;-2.732;2022-11-20T14:35:18;2;1;
69123;PMS5003;56232;53.384;-2.732;2022-11-20T14:37:42;1;1;
69123;PMS5003;56232;53.384;-2.732;2022-11-20T14:42:33;1;0;
69123;PMS5003;56232;53.384;-2.732;2022-11-20T14:44:59;0;0;
69123;PMS5003;56232;53.384;-2.732;2022-11-20T14:47:25;5;2;
69123;PMS5003;56232;53.384;-2.732;2022-11-20T14:49:50;0;0;
69123;PMS5003;56232;53.384;-2.732;2022-11-20T14:52:16;1;1;
69123;PMS5003;56232;53.384;-2.732;2022-11-20T14:54:45;1;1;
69123;PMS5003;56232;53.384;-2.732;2022-11-20T14:59:34;3;2;
69123;PMS5003;56232;53.384;-2.732;2022-11-20T15:01:59;2;2;
69123;PMS5003;56232;53.384;-2.732;2022-11-20T15:04:24;1;1;
69123;PMS5003;56232;53.384;-2.732;2022-11-20T15:06:50;1;1;
69123;PMS5003;56232;53.384;-2.732;2022-11-20T15:09:15;2;1;
69123;PMS5003;56232;53.384;-2.732;2022-11-20T15:11:49;3;2;
69123;PMS5003;56232;53.384;-2.732;2022-11-20T15:14:08;2;1;
69123;PMS5003;56232;53.384;-2.732;2022-11-20T15:16:33;4;4;
69123;PMS5003;56232;53.384;-2.732;2022-11-20T15:18:58;1;1;
69123;PMS5003;56232;53.384;-2.732;2022-11-20T15:21:24;4;4;
69123;PMS5003;56232;53.384;-2.732;2022-11-20T15:23:50;1;1;
69123;PMS5003;56232;53.384;-2.732;2022-11-20T15:26:18;1;1;
69123;PMS5003;56232;53.384;-2.732;2022-11-20T15:28:42;1;1;
69123;PMS5003;56232;53.384;-2.732;2022-11-20T15:31:09;1;1;
69123;PMS5003;56232;53.384;-2.732;2022-11-20T15:33:33;0;0;
69123;PMS5003;56232;53.384;-2.732;2022-11-20T15:35:58;2;2;
69123;PMS5003;56232;53.384;-2.732;2022-11-20T15:38:24;3;3;
69123;PMS5003;56232;53.384;-2.732;2022-11-20T15:40:50;3;3;
69123;PMS5003;56232;53.384;-2.732;2022-11-20T15:43:15;5;5;
69123;PMS5003;56232;53.384;-2.732;2022-11-20T15:45:42;4;3;
69123;PMS5003;56232;53.384;-2.732;2022-11-20T15:48:08;3;3;
69123;PMS5003;56232;53.384;-2.732;2022-11-20T15:50:34;3;3;
69123;PMS5003;56232;53.384;-2.732;2022-11-20T15:52:58;3;3;
69123;PMS5003;56232;53.384;-2.732;2022-11-20T15:55:24;4;3;
69123;PMS5003;56232;53.384;-2.732;2022-11-20T15:57:50;4;4;
69123;PMS5003;56232;53.384;-2.732;2022-11-20T16:00:16;7;7;
69123;PMS5003;56232;53.384;-2.732;2022-11-20T16:02:41;7;6;
69123;PMS5003;56232;53.384;-2.732;2022-11-20T16:05:09;8;7;
69123;PMS5003;56232;53.384;-2.732;2022-11-20T16:07:32;11;8;
69123;PMS5003;56232;53.384;-2.732;2022-11-20T16:09:58;9;9;
69123;PMS5003;56232;53.384;-2.732;2022-11-20T16:12:24;7;6;
69123;PMS5003;56232;53.384;-2.732;2022-11-20T16:14:49;8;8;
69123;PMS5003;56232;53.384;-2.732;2022-11-20T16:17:15;9;9;
69123;PMS5003;56232;53.384;-2.732;2022-11-20T16:19:46;7;7;
69123;PMS5003;56232;53.384;-2.732;2022-11-20T16:22:09;7;7;
69123;PMS5003;56232;53.384;-2.732;2022-11-20T16:24:32;6;6;
69123;PMS5003;56232;53.384;-2.732;2022-11-20T16:26:58;8;8;
69123;PMS5003;56232;53.384;-2.732;2022-11-20T16:29:24;6;6;
69123;PMS5003;56232;53.384;-2.732;2022-11-20T16:31:50;10;10;